Disclaimer

Please do not use the information listed here in-flight or in-navigation, as they are not provided to us by the airports but are provided by volunteers, so they might be outdated.

Search


Regions


Airport information page

Radio informations:
Tower (TWR) - 118.0 MHz
DEP - 119.05 MHz
Automatic Terminal Information Service (ATIS) - 128.45 MHz
Approach (APP) - 121.4 MHz

Airport informations:
Latitude: 37° 57' 21.21" N
Longitude: 139° 07' 14.58" E
Elevation: 29 feet - 9 meters
Operating hours: Remarks
Operating agency: Military-civil joint use airport
Timezone: UTC+9
Fuel: Jet A1+, Jet A1 with icing inhibitor.

100/130 octane gasoline, leaded, MIL-L-5572F (GREEN)

80/87 octane gasoline, leaded, MIL-L-5572F (RED)

Runway information:
04/22 - 4300 x 150 feet< - >1311 x 46 meters
10/28 - 8200 x 150 feet< - >2499 x 46 meters

Recent METARs:
RJSN 151000Z 11002KT 9999 FEW040 BKN050 12/04 Q1024
RJSN 151100Z 17003KT 9999 FEW040 BKN050 11/05 Q1024
RJSN 151100Z 17003KT 9999 FEW040 BKN050 11/05 Q1024

Airport on the map: